Airfield :
LOGIN :

Register | Disclaimer

   EN    FR    IT 

 










Legend :    VFR   Marginal VFR   IFR   Intensive IFR   Very Intensive IFR
Visi :
Ceiling :
>= 8 km
>= 3000ft
5 to 8 km
1000 to 3000 ft
1500m to 5 km
500 to 1000 ft
800 to 1500m
200 to 500 ft
< 800m
< 200 ft
Symbols :   Thunderstorms  Fog  Heavy snow  Heavy precipitations  Wind > 20 kt
SIGMETs :     Misc.  Thunderstorms  Icing  Turbulence  Mountain Waves  Volcanic Ashes







- Airport Elevation : 1213 ft
- IATA code : SCQ


LEST - Santiago de Compostela

CURRENT METAR :
  • 162200Z VRB02KT 3000 0600W BCFG FEW004 BKN028 12/11 Q1020 TEMPO 1500 BKN005

EXPIRED METARs :
  • 162152Z VRB02KT 6000 0600W BCFG FEW004 BKN028 12/11 Q1020 TEMPO 3000 BR
  • 162130Z VRB01KT 9999 -RA FEW024 SCT032 12/12 Q1020 TEMPO 3000 RA
  • 162100Z 00000KT 9999 FEW024 SCT036 12/11 Q1020 TEMPO 3000 RA
  • 162030Z 00000KT 9999 FEW024 SCT041 BKN045 12/11 Q1021 TEMPO 3000 RA
  • 162000Z VRB01KT 8000 -RA FEW024 BKN032 BKN045 12/11 Q1021 TEMPO 3000 RA
  • 161930Z VRB01KT 8000 -DZ FEW022 SCT035 BKN045 12/11 Q1021 TEMPO 3000 RA
  • 161921Z VRB01KT 7000 -DZ FEW017 SCT028 BKN045 12/11 Q1021 TEMPO 3000 RA

TAF TAF LEST
Valid from the 16 at 18:00 until the 17 at 18:00 UTC


161700Z 1618/1718 03006KT 8000 SCT014 BKN028 TX17/1714Z TN10/1706Z
TEMPO 1618/1707 3000 RA SHRA BKN010 SCT025TCU
PROB30
TEMPO 1618/1624 3000 SHRA TS SCT030CB
PROB40
TEMPO 1618/1707 1500 -RA BR BKN005
BECMG 1709/1712 21010KT
TEMPO 1712/1715 21015G25KT
No reported NOTAMs for that airfield.
1 SIGMET reported for the Madrid FIR (LECM) :
 
Embedded thunderstorms
LECM SIGMET 1 VALID 162135/162330 LEVA
LECM MADRID FIR/UIR EMBD TS OBS AT 2135Z S OF LINE N4220 W00840 - N4230 W008 TOP FL320 MOV N NC=



MET'MAP, your aeronautical weather chart ! - Copyright ORBIFLY December 2007 - Disclaimer

ORBIFLY MET'MAP TEAM :

Programming & Development : Alexandra Zaïnal
Concept & Development : Baudouin d'Aumeries
Co-Development & Prog : Marc-Olivier Méhu
Technical & hardware support : Manuel Goepfert

Contact : metmap@orbifly.com




SOURCES & CREDITS :

   NOAA